createdAt,value
2017-08-01T00:00:11.357Z,0
2017-08-01T00:01:12.856Z,0
2017-08-01T00:02:14.354Z,0
2017-08-01T00:03:15.886Z,0
2017-08-01T00:04:17.397Z,0
2017-08-01T00:05:18.917Z,0
2017-08-01T00:06:20.428Z,0
2017-08-01T00:07:21.939Z,0
2017-08-01T00:08:23.435Z,0
2017-08-01T00:09:24.950Z,0
2017-08-01T00:10:26.576Z,0
2017-08-01T00:11:28.106Z,0
2017-08-01T00:12:29.608Z,0
2017-08-01T00:13:31.035Z,0
2017-08-01T00:14:32.547Z,0
2017-08-01T00:15:34.128Z,0
2017-08-01T00:16:35.641Z,0
2017-08-01T00:17:37.155Z,0
2017-08-01T00:18:38.570Z,0
2017-08-01T00:19:40.038Z,0
2017-08-01T00:20:41.556Z,0
2017-08-01T00:21:43.060Z,0
2017-08-01T00:22:44.573Z,0
2017-08-01T00:23:46.111Z,0
2017-08-01T00:24:47.612Z,0
2017-08-01T00:25:49.229Z,0
2017-08-01T00:26:50.739Z,0
2017-08-01T00:27:52.254Z,0
2017-08-01T00:28:53.690Z,0
2017-08-01T00:29:55.187Z,0
2017-08-01T00:30:56.794Z,0
2017-08-01T00:31:58.285Z,0
2017-08-01T00:32:59.794Z,0
2017-08-01T00:34:01.227Z,0
2017-08-01T00:35:02.696Z,0
2017-08-01T00:36:04.188Z,0
2017-08-01T00:37:05.692Z,0
2017-08-01T00:38:07.195Z,0
2017-08-01T00:39:08.688Z,0
2017-08-01T00:40:10.187Z,0
2017-08-01T00:41:11.691Z,0
2017-08-01T00:42:13.235Z,0
2017-08-01T00:43:14.734Z,0
2017-08-01T00:44:16.230Z,0
2017-08-01T00:45:17.727Z,0
2017-08-01T00:46:19.237Z,0
2017-08-01T00:47:20.660Z,0
2017-08-01T00:48:22.120Z,0
2017-08-01T00:49:23.651Z,0
2017-08-01T00:50:25.149Z,0
2017-08-01T00:51:26.662Z,0
2017-08-01T00:52:28.169Z,0
2017-08-01T00:53:29.671Z,0
2017-08-01T00:54:31.174Z,0
2017-08-01T00:55:32.675Z,0
2017-08-01T00:56:34.168Z,0
2017-08-01T00:57:35.674Z,0
2017-08-01T00:58:37.175Z,0
2017-08-01T00:59:38.684Z,0
2017-08-01T01:00:40.112Z,0
2017-08-01T01:01:41.629Z,0
2017-08-01T01:02:43.180Z,0
2017-08-01T01:03:44.688Z,0
2017-08-01T01:04:46.183Z,0
2017-08-01T01:05:47.607Z,0
2017-08-01T01:06:49.101Z,0
2017-08-01T01:07:50.750Z,0
2017-08-01T01:08:52.251Z,0
2017-08-01T01:09:53.754Z,0
2017-08-01T01:10:55.200Z,0
2017-08-01T01:11:56.724Z,0
2017-08-01T01:12:58.297Z,0
2017-08-01T01:13:59.815Z,0
2017-08-01T01:15:01.321Z,0
2017-08-01T01:16:02.753Z,0
2017-08-01T01:17:04.264Z,0
2017-08-01T01:18:05.837Z,0
2017-08-01T01:19:07.341Z,0
2017-08-01T01:20:08.848Z,0
2017-08-01T01:21:10.266Z,0
2017-08-01T01:22:11.780Z,0
2017-08-01T01:23:13.390Z,0
2017-08-01T01:24:14.916Z,0
2017-08-01T01:25:16.436Z,0
2017-08-01T01:26:17.972Z,0
2017-08-01T01:27:19.328Z,0
2017-08-01T01:28:20.993Z,0
2017-08-01T01:29:22.503Z,0
2017-08-01T01:30:24.017Z,0
2017-08-01T01:31:25.532Z,0
2017-08-01T01:32:27.031Z,0
2017-08-01T01:33:28.539Z,0
2017-08-01T01:34:30.043Z,0
2017-08-01T01:35:31.562Z,0
2017-08-01T01:36:33.062Z,0
2017-08-01T01:37:34.562Z,0
2017-08-01T01:38:36.104Z,0
2017-08-01T01:39:37.644Z,0
2017-08-01T01:40:39.365Z,0
2017-08-01T01:41:40.879Z,0
2017-08-01T01:42:42.413Z,0
2017-08-01T01:43:43.959Z,0
2017-08-01T01:44:45.495Z,0
2017-08-01T01:45:46.921Z,0
2017-08-01T01:46:48.402Z,0
2017-08-01T01:47:49.899Z,0
2017-08-01T01:48:51.411Z,0
2017-08-01T01:49:52.946Z,0
2017-08-01T01:50:54.435Z,0
2017-08-01T01:51:55.943Z,0
2017-08-01T01:52:57.637Z,0
2017-08-01T01:53:59.170Z,0
2017-08-01T01:55:00.696Z,0
2017-08-01T01:56:02.240Z,0
2017-08-01T01:57:03.760Z,0
2017-08-01T01:58:05.234Z,0
2017-08-01T01:59:06.725Z,0
2017-08-01T02:00:08.253Z,0
2017-08-01T02:01:09.792Z,0
2017-08-01T02:02:11.391Z,0
2017-08-01T02:03:12.940Z,0
2017-08-01T02:04:14.489Z,0
2017-08-01T02:05:16.014Z,0
2017-08-01T02:06:17.537Z,0
2017-08-01T02:07:19.134Z,0
2017-08-01T02:08:20.643Z,0
2017-08-01T02:09:22.190Z,0
2017-08-01T02:10:23.720Z,0
2017-08-01T02:11:25.230Z,0
2017-08-01T02:12:26.741Z,0
2017-08-01T02:13:28.255Z,0
2017-08-01T02:14:29.895Z,0
2017-08-01T02:15:31.415Z,0
2017-08-01T02:16:32.944Z,0
2017-08-01T02:17:34.468Z,0
2017-08-01T02:18:35.840Z,0
2017-08-01T02:19:37.457Z,0
2017-08-01T02:20:38.982Z,0
2017-08-01T02:21:40.498Z,0
2017-08-01T02:22:42.018Z,0
2017-08-01T02:23:43.432Z,0
2017-08-01T02:24:45.045Z,0
2017-08-01T02:25:46.548Z,0
2017-08-01T02:26:48.086Z,0
2017-08-01T02:27:49.624Z,0
2017-08-01T02:28:51.151Z,0
2017-08-01T02:29:52.589Z,0
2017-08-01T02:30:54.102Z,0
2017-08-01T02:31:55.650Z,0
2017-08-01T02:32:57.132Z,0
2017-08-01T02:33:58.648Z,0
2017-08-01T02:35:00.163Z,0
2017-08-01T02:36:01.687Z,0
2017-08-01T02:37:03.679Z,0
2017-08-01T02:38:05.187Z,0
2017-08-01T02:39:06.605Z,0
2017-08-01T02:40:08.105Z,0
2017-08-01T02:41:09.610Z,0
2017-08-01T02:42:11.125Z,0
2017-08-01T02:43:12.623Z,0
2017-08-01T02:44:14.115Z,0
2017-08-01T02:45:15.619Z,0
2017-08-01T02:46:17.121Z,0
2017-08-01T02:47:18.548Z,0
2017-08-01T02:48:20.054Z,0
2017-08-01T02:49:21.635Z,0
2017-08-01T02:50:23.161Z,0
2017-08-01T02:51:24.669Z,0
2017-08-01T02:52:26.099Z,0
2017-08-01T02:53:27.564Z,0
2017-08-01T02:54:29.186Z,0
2017-08-01T02:55:30.681Z,0
2017-08-01T02:56:32.190Z,0
2017-08-01T02:57:33.614Z,0
2017-08-01T02:58:35.152Z,0
2017-08-01T02:59:36.736Z,0
2017-08-01T03:00:38.231Z,0
2017-08-01T03:01:39.748Z,0
2017-08-01T03:02:41.323Z,0
2017-08-01T03:03:42.815Z,0
2017-08-01T03:04:44.306Z,0
2017-08-01T03:05:45.812Z,0
2017-08-01T03:06:47.324Z,0
2017-08-01T03:07:48.877Z,0
2017-08-01T03:08:50.381Z,0
2017-08-01T03:09:51.896Z,0
2017-08-01T03:10:53.414Z,0
2017-08-01T03:11:54.969Z,0
2017-08-01T03:12:56.489Z,0
2017-08-01T03:13:58.001Z,0
2017-08-01T03:14:59.425Z,0
2017-08-01T03:16:00.932Z,0
2017-08-01T03:17:02.443Z,0
2017-08-01T03:18:03.946Z,0
2017-08-01T03:19:05.327Z,0
2017-08-01T03:20:06.962Z,0
2017-08-01T03:21:08.472Z,0
2017-08-01T03:22:09.998Z,0
2017-08-01T03:23:11.509Z,0
2017-08-01T03:24:12.875Z,0
2017-08-01T03:25:14.545Z,0
2017-08-01T03:26:16.049Z,0
2017-08-01T03:27:17.570Z,0
2017-08-01T03:28:19.071Z,0
2017-08-01T03:29:20.576Z,0
2017-08-01T03:30:22.065Z,0
2017-08-01T03:31:23.592Z,0
2017-08-01T03:32:25.088Z,0
2017-08-01T03:33:26.513Z,0
2017-08-01T03:34:28.011Z,0
2017-08-01T03:35:29.597Z,0
2017-08-01T03:36:31.106Z,0
2017-08-01T03:37:32.615Z,0
2017-08-01T03:38:34.147Z,0
2017-08-01T03:39:35.557Z,0
2017-08-01T03:40:37.143Z,0
2017-08-01T03:41:38.645Z,0
2017-08-01T03:42:40.160Z,0
2017-08-01T03:43:41.592Z,0
2017-08-01T03:44:43.042Z,0
2017-08-01T03:45:44.539Z,0
2017-08-01T03:46:46.037Z,0
2017-08-01T03:47:47.555Z,0
2017-08-01T03:48:49.073Z,0
2017-08-01T03:49:50.591Z,0
2017-08-01T03:50:52.095Z,0
2017-08-01T03:51:53.600Z,0
2017-08-01T03:52:55.092Z,0
2017-08-01T03:53:56.586Z,0
2017-08-01T03:54:58.096Z,0
2017-08-01T03:55:59.599Z,0
2017-08-01T03:57:01.021Z,0
2017-08-01T03:58:02.481Z,0
2017-08-01T03:59:03.993Z,0
2017-08-01T04:00:05.488Z,0
2017-08-01T04:01:06.982Z,0
2017-08-01T04:02:08.487Z,0
2017-08-01T04:03:09.986Z,5
2017-08-01T04:04:11.487Z,5
2017-08-01T04:05:13.017Z,5
2017-08-01T04:06:14.386Z,5
2017-08-01T04:07:16.070Z,5
2017-08-01T04:08:17.568Z,5
2017-08-01T04:09:19.067Z,5
2017-08-01T04:10:20.569Z,5
2017-08-01T04:11:22.091Z,5
2017-08-01T04:12:23.602Z,5
2017-08-01T04:13:25.108Z,5
2017-08-01T04:14:26.630Z,5
2017-08-01T04:15:28.126Z,5
2017-08-01T04:16:29.641Z,5
2017-08-01T04:17:31.166Z,5
2017-08-01T04:18:32.660Z,10
2017-08-01T04:19:34.164Z,10
2017-08-01T04:20:35.669Z,10
2017-08-01T04:21:37.196Z,10
2017-08-01T04:22:38.716Z,10
2017-08-01T04:23:40.218Z,10
2017-08-01T04:24:41.726Z,10
2017-08-01T04:25:43.235Z,10
2017-08-01T04:26:44.741Z,10
2017-08-01T04:27:46.269Z,5
2017-08-01T04:28:47.775Z,5
2017-08-01T04:29:49.313Z,5
2017-08-01T04:30:50.816Z,10
2017-08-01T04:31:52.330Z,10
2017-08-01T04:32:53.840Z,10
2017-08-01T04:33:55.372Z,10
2017-08-01T04:34:57.001Z,15
2017-08-01T04:35:58.506Z,15
2017-08-01T04:37:00.010Z,15
2017-08-01T04:38:01.530Z,15
2017-08-01T04:39:02.926Z,10
2017-08-01T04:40:04.586Z,10
2017-08-01T04:41:06.083Z,10
2017-08-01T04:42:07.591Z,5
2017-08-01T04:43:09.205Z,5
2017-08-01T04:44:10.735Z,5
2017-08-01T04:45:12.187Z,5
2017-08-01T04:46:13.674Z,5
2017-08-01T04:47:15.198Z,5
2017-08-01T04:48:16.728Z,0
2017-08-01T04:49:18.240Z,0
2017-08-01T04:50:19.680Z,0
2017-08-01T04:51:21.203Z,0
2017-08-01T04:52:22.851Z,5
2017-08-01T04:53:24.398Z,5
2017-08-01T04:54:25.923Z,5
2017-08-01T04:55:27.437Z,5
2017-08-01T04:56:28.939Z,5
2017-08-01T04:57:30.463Z,5
2017-08-01T04:58:32.002Z,5
2017-08-01T04:59:33.659Z,10
2017-08-01T05:00:35.199Z,10
2017-08-01T05:01:36.750Z,10
2017-08-01T05:02:38.273Z,15
2017-08-01T05:03:39.774Z,15
2017-08-01T05:04:41.201Z,15
2017-08-01T05:05:42.718Z,20
2017-08-01T05:06:44.228Z,25
2017-08-01T05:07:45.733Z,25
2017-08-01T05:08:47.385Z,30
2017-08-01T05:09:48.811Z,30
2017-08-01T05:10:50.329Z,35
2017-08-01T05:11:51.932Z,35
2017-08-01T05:12:53.447Z,35
2017-08-01T05:13:54.981Z,35
2017-08-01T05:14:56.399Z,30
2017-08-01T05:15:57.908Z,25
2017-08-01T05:16:59.511Z,25
2017-08-01T05:18:01.022Z,25
2017-08-01T05:19:02.526Z,25
2017-08-01T05:20:04.048Z,25
2017-08-01T05:21:05.444Z,30
2017-08-01T05:22:07.039Z,25
2017-08-01T05:23:08.547Z,25
2017-08-01T05:24:10.092Z,25
2017-08-01T05:25:11.505Z,20
2017-08-01T05:26:13.024Z,25
2017-08-01T05:27:14.479Z,25
2017-08-01T05:28:15.999Z,30
2017-08-01T05:29:17.501Z,30
2017-08-01T05:30:19.018Z,35
2017-08-01T05:31:20.528Z,35
2017-08-01T05:32:22.180Z,35
2017-08-01T05:33:23.695Z,35
2017-08-01T05:34:25.230Z,30
2017-08-01T05:35:26.732Z,30
2017-08-01T05:36:28.252Z,30
2017-08-01T05:37:29.755Z,30
2017-08-01T05:38:31.278Z,45
2017-08-01T05:39:32.954Z,60
2017-08-01T05:40:34.468Z,75
2017-08-01T05:41:35.981Z,95
2017-08-01T05:42:37.504Z,100
2017-08-01T05:43:39.078Z,105
2017-08-01T05:44:40.513Z,120
2017-08-01T05:45:42.019Z,140
2017-08-01T05:46:43.541Z,170
2017-08-01T05:47:45.058Z,195
2017-08-01T05:48:46.591Z,255
2017-08-01T05:49:48.117Z,285
2017-08-01T05:50:49.650Z,455
2017-08-01T05:51:51.234Z,645
2017-08-01T05:52:52.746Z,715
2017-08-01T05:53:54.278Z,740
2017-08-01T05:54:55.809Z,745
2017-08-01T05:55:57.321Z,635
2017-08-01T05:56:58.837Z,375
2017-08-01T05:58:00.354Z,285
2017-08-01T05:59:01.888Z,245
2017-08-01T06:00:03.420Z,170
2017-08-01T06:01:04.914Z,220
2017-08-01T06:02:06.419Z,300
2017-08-01T06:03:07.940Z,170
2017-08-01T06:04:09.543Z,325
2017-08-01T06:05:11.053Z,270
2017-08-01T06:06:12.567Z,265
2017-08-01T06:07:13.990Z,340
2017-08-01T06:08:15.454Z,465
2017-08-01T06:09:16.988Z,685
2017-08-01T06:10:18.508Z,535
2017-08-01T06:11:20.021Z,345
2017-08-01T06:12:21.545Z,160
2017-08-01T06:13:23.056Z,100
2017-08-01T06:14:24.542Z,95
2017-08-01T06:15:26.079Z,95
2017-08-01T06:16:27.591Z,95
2017-08-01T06:17:29.042Z,100
2017-08-01T06:18:30.573Z,110
2017-08-01T06:19:32.192Z,120
2017-08-01T06:20:33.707Z,135
2017-08-01T06:21:35.223Z,155
2017-08-01T06:22:36.666Z,180
2017-08-01T06:23:38.187Z,235
2017-08-01T06:24:39.762Z,470
2017-08-01T06:25:41.288Z,370
2017-08-01T06:26:42.804Z,415
2017-08-01T06:27:44.340Z,340
2017-08-01T06:28:45.823Z,290
2017-08-01T06:29:47.334Z,385
2017-08-01T06:30:48.861Z,275
2017-08-01T06:31:50.376Z,325
2017-08-01T06:32:51.889Z,945
2017-08-01T06:33:53.429Z,740
2017-08-01T06:34:54.934Z,455
2017-08-01T06:35:56.466Z,1095
2017-08-01T06:36:58.050Z,1125
2017-08-01T06:37:59.599Z,1135
2017-08-01T06:39:01.114Z,1040
2017-08-01T06:40:02.641Z,1180
2017-08-01T06:41:04.033Z,1205
2017-08-01T06:42:05.614Z,1250
2017-08-01T06:43:07.150Z,1230
2017-08-01T06:44:08.658Z,1225
2017-08-01T06:45:10.097Z,950
2017-08-01T06:46:11.635Z,955
2017-08-01T06:47:13.076Z,550
2017-08-01T06:48:14.601Z,340
2017-08-01T06:49:16.106Z,340
2017-08-01T06:50:17.546Z,295
2017-08-01T06:51:19.047Z,260
2017-08-01T06:52:20.565Z,195
2017-08-01T06:53:22.075Z,185
2017-08-01T06:54:23.743Z,175
2017-08-01T06:55:25.179Z,250
2017-08-01T06:56:26.641Z,175
2017-08-01T06:57:28.186Z,180
2017-08-01T06:58:29.704Z,205
2017-08-01T06:59:31.226Z,220
2017-08-01T07:00:32.654Z,255
2017-08-01T07:01:34.163Z,270
2017-08-01T07:02:35.701Z,285
2017-08-01T07:03:37.209Z,295
2017-08-01T07:04:38.724Z,280
2017-08-01T07:05:40.232Z,260
2017-08-01T07:06:41.743Z,260
2017-08-01T07:07:43.406Z,265
2017-08-01T07:08:44.937Z,260
2017-08-01T07:09:46.432Z,245
2017-08-01T07:10:47.955Z,230
2017-08-01T07:11:49.470Z,250
2017-08-01T07:12:50.998Z,350
2017-08-01T07:13:52.525Z,895
2017-08-01T07:14:54.152Z,1180
2017-08-01T07:15:55.684Z,1240
2017-08-01T07:16:57.192Z,1195
2017-08-01T07:17:58.719Z,1070
2017-08-01T07:19:00.111Z,635
2017-08-01T07:20:01.702Z,1165
2017-08-01T07:21:03.233Z,1165
2017-08-01T07:22:04.750Z,1150
2017-08-01T07:23:06.275Z,1135
2017-08-01T07:24:07.796Z,1130
2017-08-01T07:25:09.327Z,1150
2017-08-01T07:26:10.844Z,1145
2017-08-01T07:27:12.473Z,1105
2017-08-01T07:28:14.011Z,1155
2017-08-01T07:29:15.527Z,1175
2017-08-01T07:30:17.038Z,370
2017-08-01T07:31:18.563Z,275
2017-08-01T07:32:20.105Z,285
2017-08-01T07:33:21.606Z,225
2017-08-01T07:34:23.221Z,265
2017-08-01T07:35:24.754Z,300
2017-08-01T07:36:26.278Z,385
2017-08-01T07:37:27.799Z,280
2017-08-01T07:38:29.234Z,1155
2017-08-01T07:39:30.711Z,1020
2017-08-01T07:40:32.243Z,900
2017-08-01T07:41:33.773Z,290
2017-08-01T07:42:35.213Z,210
2017-08-01T07:43:36.728Z,305
2017-08-01T07:44:38.434Z,330
2017-08-01T07:45:39.980Z,265
2017-08-01T07:46:41.458Z,215
2017-08-01T07:47:43.036Z,185
2017-08-01T07:48:44.556Z,285
2017-08-01T07:49:46.021Z,280
2017-08-01T07:50:47.509Z,445
2017-08-01T07:51:49.148Z,530
2017-08-01T07:52:50.674Z,280
2017-08-01T07:53:52.188Z,255
2017-08-01T07:54:53.696Z,335
2017-08-01T07:55:55.221Z,185
2017-08-01T07:56:56.736Z,180
2017-08-01T07:57:58.287Z,170
2017-08-01T07:58:59.894Z,170
2017-08-01T08:00:01.504Z,155
2017-08-01T08:01:02.992Z,130
2017-08-01T08:02:04.538Z,115
2017-08-01T08:03:06.054Z,120
2017-08-01T08:04:07.500Z,120
2017-08-01T08:05:09.015Z,125
2017-08-01T08:06:10.547Z,145
2017-08-01T08:07:12.068Z,150
2017-08-01T08:08:13.597Z,150
2017-08-01T08:09:15.041Z,140
2017-08-01T08:10:16.546Z,135
2017-08-01T08:11:18.065Z,165
2017-08-01T08:12:19.587Z,160
2017-08-01T08:13:21.102Z,155
2017-08-01T08:14:22.611Z,150
2017-08-01T08:15:24.130Z,125
2017-08-01T08:16:25.784Z,140
2017-08-01T08:17:27.302Z,145
2017-08-01T08:18:28.816Z,160
2017-08-01T08:19:30.345Z,185
2017-08-01T08:20:31.851Z,205
2017-08-01T08:21:33.386Z,190
2017-08-01T08:22:34.904Z,180
2017-08-01T08:23:36.594Z,175
2017-08-01T08:24:38.102Z,175
2017-08-01T08:25:39.625Z,180
2017-08-01T08:26:41.133Z,170
2017-08-01T08:27:42.683Z,155
2017-08-01T08:28:44.199Z,145
2017-08-01T08:29:45.717Z,135
2017-08-01T08:30:47.347Z,120
2017-08-01T08:31:48.911Z,115
2017-08-01T08:32:50.439Z,115
2017-08-01T08:33:51.962Z,105
2017-08-01T08:34:53.469Z,90
2017-08-01T08:35:54.904Z,85
2017-08-01T08:36:56.409Z,80
2017-08-01T08:37:57.918Z,90
2017-08-01T08:38:59.426Z,105
2017-08-01T08:40:00.932Z,110
2017-08-01T08:41:02.441Z,105
2017-08-01T08:42:03.955Z,105
2017-08-01T08:43:05.459Z,100
2017-08-01T08:44:06.976Z,90
2017-08-01T08:45:08.363Z,80
2017-08-01T08:46:09.979Z,80
2017-08-01T08:47:11.492Z,85
2017-08-01T08:48:12.998Z,95
2017-08-01T08:49:14.431Z,100
2017-08-01T08:50:15.936Z,100
2017-08-01T08:51:17.498Z,105
2017-08-01T08:52:19.015Z,100
2017-08-01T08:53:20.522Z,85
2017-08-01T08:54:21.957Z,70
2017-08-01T08:55:23.425Z,60
2017-08-01T08:56:25.064Z,65
2017-08-01T08:57:26.570Z,70
2017-08-01T08:58:28.102Z,80
2017-08-01T08:59:29.526Z,105
2017-08-01T09:00:31.026Z,120
2017-08-01T09:01:32.639Z,125
2017-08-01T09:02:34.175Z,110
2017-08-01T09:03:35.681Z,95
2017-08-01T09:04:37.197Z,90
2017-08-01T09:05:38.712Z,75
2017-08-01T09:06:40.230Z,65
2017-08-01T09:07:41.756Z,60
2017-08-01T09:08:43.416Z,55
2017-08-01T09:09:44.926Z,55
2017-08-01T09:10:46.446Z,60
2017-08-01T09:11:47.949Z,75
2017-08-01T09:12:49.457Z,110
2017-08-01T09:13:50.964Z,105
2017-08-01T09:14:52.489Z,85
2017-08-01T09:15:54.002Z,75
2017-08-01T09:16:55.506Z,75
2017-08-01T09:17:57.007Z,85
2017-08-01T09:18:58.527Z,100
2017-08-01T09:20:00.017Z,115
2017-08-01T09:21:01.529Z,135
2017-08-01T09:22:03.045Z,130
2017-08-01T09:23:04.437Z,110
2017-08-01T09:24:06.029Z,85
2017-08-01T09:25:07.551Z,85
2017-08-01T09:26:09.052Z,80
2017-08-01T09:27:10.491Z,65
2017-08-01T09:28:12.025Z,50
2017-08-01T09:29:13.484Z,45
2017-08-01T09:30:15.005Z,45
2017-08-01T09:31:16.521Z,45
2017-08-01T09:32:17.947Z,45
2017-08-01T09:33:19.472Z,55
2017-08-01T09:34:20.988Z,60
2017-08-01T09:35:22.508Z,65
2017-08-01T09:36:24.015Z,70
2017-08-01T09:37:25.541Z,75
2017-08-01T09:38:27.049Z,85
2017-08-01T09:39:28.677Z,95
2017-08-01T09:40:30.194Z,105
2017-08-01T09:41:31.719Z,105
2017-08-01T09:42:33.145Z,95
2017-08-01T09:43:34.666Z,90
2017-08-01T09:44:36.236Z,85
2017-08-01T09:45:37.747Z,80
2017-08-01T09:46:39.277Z,80
2017-08-01T09:47:40.704Z,80
2017-08-01T09:48:42.208Z,75
2017-08-01T09:49:43.783Z,75
2017-08-01T09:50:45.293Z,80
2017-08-01T09:51:46.816Z,85
2017-08-01T09:52:48.359Z,90
2017-08-01T09:53:49.755Z,90
2017-08-01T09:54:51.398Z,85
2017-08-01T09:55:52.904Z,85
2017-08-01T09:56:54.410Z,80
2017-08-01T09:57:55.916Z,80
2017-08-01T09:58:57.435Z,80
2017-08-01T09:59:58.969Z,70
2017-08-01T10:01:00.494Z,65
2017-08-01T10:02:02.140Z,65
2017-08-01T10:03:03.660Z,65
2017-08-01T10:04:05.159Z,80
2017-08-01T10:05:06.686Z,75
2017-08-01T10:06:08.205Z,75
2017-08-01T10:07:09.726Z,75
2017-08-01T10:08:11.243Z,75
2017-08-01T10:09:12.910Z,75
2017-08-01T10:10:14.482Z,65
2017-08-01T10:11:15.994Z,70
2017-08-01T10:12:17.529Z,90
2017-08-01T10:13:19.040Z,100
2017-08-01T10:14:20.482Z,110
2017-08-01T10:15:22.006Z,110
2017-08-01T10:16:23.525Z,130
2017-08-01T10:17:25.044Z,145
2017-08-01T10:18:26.552Z,155
2017-08-01T10:19:28.072Z,175
2017-08-01T10:20:29.588Z,210
2017-08-01T10:21:31.224Z,200
2017-08-01T10:22:32.747Z,190
2017-08-01T10:23:34.259Z,180
2017-08-01T10:24:35.788Z,175
2017-08-01T10:25:37.322Z,175
2017-08-01T10:26:38.837Z,180
2017-08-01T10:27:40.354Z,190
2017-08-01T10:28:41.976Z,200
2017-08-01T10:29:43.483Z,210
2017-08-01T10:30:45.013Z,210
2017-08-01T10:31:46.543Z,210
2017-08-01T10:32:47.929Z,200
2017-08-01T10:33:49.540Z,190
2017-08-01T10:34:51.083Z,185
2017-08-01T10:35:52.602Z,195
2017-08-01T10:36:54.119Z,205
2017-08-01T10:37:55.636Z,200
2017-08-01T10:38:57.190Z,195
2017-08-01T10:39:58.720Z,195
2017-08-01T10:41:00.360Z,210
2017-08-01T10:42:01.901Z,220
2017-08-01T10:43:03.459Z,230
2017-08-01T10:44:04.973Z,230
2017-08-01T10:45:06.501Z,230
2017-08-01T10:46:07.934Z,235
2017-08-01T10:47:09.451Z,225
2017-08-01T10:48:11.144Z,210
2017-08-01T10:49:12.667Z,190
2017-08-01T10:50:14.294Z,190
2017-08-01T10:51:15.817Z,180
2017-08-01T10:52:17.339Z,175
2017-08-01T10:53:18.859Z,175
2017-08-01T10:54:20.234Z,170
2017-08-01T10:55:21.855Z,170
2017-08-01T10:56:23.382Z,170
2017-08-01T10:57:24.902Z,180
2017-08-01T10:58:26.410Z,180
2017-08-01T10:59:27.833Z,185
2017-08-01T11:00:29.282Z,195
2017-08-01T11:01:30.768Z,205
2017-08-01T11:02:32.272Z,215
2017-08-01T11:03:33.825Z,220
2017-08-01T11:04:35.345Z,230
2017-08-01T11:05:36.980Z,230
2017-08-01T11:06:38.495Z,230
2017-08-01T11:07:40.009Z,235
2017-08-01T11:08:41.520Z,225
2017-08-01T11:09:43.062Z,220
2017-08-01T11:10:44.559Z,220
2017-08-01T11:11:46.070Z,215
2017-08-01T11:12:47.620Z,215
2017-08-01T11:13:49.254Z,220
2017-08-01T11:14:50.766Z,230
2017-08-01T11:15:52.293Z,240
2017-08-01T11:16:53.708Z,240
2017-08-01T11:17:55.158Z,220
2017-08-01T11:18:56.694Z,205
2017-08-01T11:19:58.205Z,200
2017-08-01T11:20:59.646Z,180
2017-08-01T11:22:01.167Z,170
2017-08-01T11:23:02.679Z,175
2017-08-01T11:24:04.198Z,170
2017-08-01T11:25:05.739Z,145
2017-08-01T11:26:07.265Z,135
2017-08-01T11:27:08.808Z,130
2017-08-01T11:28:10.386Z,125
2017-08-01T11:29:11.912Z,125
2017-08-01T11:30:13.417Z,135
2017-08-01T11:31:14.931Z,160
2017-08-01T11:32:16.338Z,160
2017-08-01T11:33:17.920Z,195
2017-08-01T11:34:19.444Z,185
2017-08-01T11:35:20.961Z,185
2017-08-01T11:36:22.482Z,180
2017-08-01T11:37:23.994Z,180
2017-08-01T11:38:25.493Z,205
2017-08-01T11:39:27.011Z,200
2017-08-01T11:40:28.523Z,205
2017-08-01T11:41:30.038Z,215
2017-08-01T11:42:31.409Z,220
2017-08-01T11:43:33.128Z,220
2017-08-01T11:44:34.635Z,210
2017-08-01T11:45:36.133Z,195
2017-08-01T11:46:37.655Z,190
2017-08-01T11:47:39.177Z,185
2017-08-01T11:48:40.612Z,185
2017-08-01T11:49:42.124Z,185
2017-08-01T11:50:43.644Z,200
2017-08-01T11:51:45.162Z,200
2017-08-01T11:52:46.663Z,205
2017-08-01T11:53:48.178Z,210
2017-08-01T11:54:49.703Z,205
2017-08-01T11:55:51.231Z,195
2017-08-01T11:56:52.748Z,225
2017-08-01T11:57:54.259Z,185
2017-08-01T11:58:55.770Z,165
2017-08-01T11:59:57.296Z,195
2017-08-01T12:00:58.878Z,195
2017-08-01T12:02:00.415Z,190
2017-08-01T12:03:01.954Z,210
2017-08-01T12:04:03.469Z,210
2017-08-01T12:05:04.972Z,165
2017-08-01T12:06:06.523Z,140
2017-08-01T12:07:08.033Z,115
2017-08-01T12:08:09.736Z,140
2017-08-01T12:09:11.255Z,180
2017-08-01T12:10:12.827Z,170
2017-08-01T12:11:14.338Z,190
2017-08-01T12:12:15.882Z,175
2017-08-01T12:13:17.477Z,160
2017-08-01T12:14:18.991Z,170
2017-08-01T12:15:20.497Z,185
2017-08-01T12:16:22.013Z,150
2017-08-01T12:17:23.853Z,180
2017-08-01T12:18:25.539Z,150
2017-08-01T12:19:26.999Z,125
2017-08-01T12:20:28.631Z,160
2017-08-01T12:21:30.348Z,185
2017-08-01T12:22:32.138Z,150
2017-08-01T12:23:33.681Z,130
2017-08-01T12:24:35.371Z,105
2017-08-01T12:25:36.920Z,100
2017-08-01T12:26:38.457Z,100
2017-08-01T12:27:39.885Z,120
2017-08-01T12:28:41.351Z,150
2017-08-01T12:29:42.979Z,180
2017-08-01T12:30:44.489Z,185
2017-08-01T12:31:46.025Z,195
2017-08-01T12:32:47.543Z,190
2017-08-01T12:33:48.971Z,190
2017-08-01T12:34:50.427Z,175
2017-08-01T12:35:51.958Z,185
2017-08-01T12:36:53.484Z,175
2017-08-01T12:37:54.917Z,160
2017-08-01T12:38:56.460Z,135
2017-08-01T12:39:58.129Z,130
2017-08-01T12:40:59.648Z,110
2017-08-01T12:42:01.167Z,105
2017-08-01T12:43:02.678Z,100
2017-08-01T12:44:04.192Z,130
2017-08-01T12:45:05.719Z,160
2017-08-01T12:46:07.246Z,175
2017-08-01T12:47:08.874Z,150
2017-08-01T12:48:10.413Z,130
2017-08-01T12:49:11.918Z,105
2017-08-01T12:50:13.422Z,115
2017-08-01T12:51:14.945Z,120
2017-08-01T12:52:16.478Z,120
2017-08-01T12:53:18.031Z,105
2017-08-01T12:54:19.635Z,100
2017-08-01T12:55:21.237Z,105
2017-08-01T12:56:22.765Z,105
2017-08-01T12:57:24.305Z,95
2017-08-01T12:58:26.037Z,100
2017-08-01T12:59:27.625Z,100
2017-08-01T13:00:29.268Z,90
2017-08-01T13:01:30.799Z,85
2017-08-01T13:02:32.325Z,90
2017-08-01T13:03:33.867Z,80
2017-08-01T13:04:35.276Z,95
2017-08-01T13:05:36.819Z,110
2017-08-01T13:06:38.355Z,115
2017-08-01T13:07:39.886Z,100
2017-08-01T13:08:41.415Z,100
2017-08-01T13:09:42.795Z,100
2017-08-01T13:10:44.434Z,105
2017-08-01T13:11:45.953Z,110
2017-08-01T13:12:47.483Z,100
2017-08-01T13:13:48.992Z,95
2017-08-01T13:14:50.519Z,100
2017-08-01T13:15:52.052Z,100
2017-08-01T13:16:53.540Z,105
2017-08-01T13:17:55.191Z,115
2017-08-01T13:18:56.709Z,115
2017-08-01T13:19:58.238Z,115
2017-08-01T13:20:59.752Z,115
2017-08-01T13:22:01.260Z,110
2017-08-01T13:23:02.796Z,110
2017-08-01T13:24:04.383Z,115
2017-08-01T13:25:05.836Z,120
2017-08-01T13:26:07.358Z,135
2017-08-01T13:27:08.893Z,150
2017-08-01T13:28:10.331Z,165
2017-08-01T13:29:11.841Z,165
2017-08-01T13:30:13.466Z,165
2017-08-01T13:31:14.980Z,145
2017-08-01T13:32:16.561Z,105
2017-08-01T13:33:18.085Z,85
2017-08-01T13:34:19.582Z,80
2017-08-01T13:35:21.099Z,85
2017-08-01T13:36:22.655Z,80
2017-08-01T13:37:24.264Z,70
2017-08-01T13:38:25.792Z,70
2017-08-01T13:39:27.314Z,80
2017-08-01T13:40:28.830Z,80
2017-08-01T13:41:30.354Z,80
2017-08-01T13:42:31.874Z,95
2017-08-01T13:43:33.387Z,105
2017-08-01T13:44:35.015Z,135
2017-08-01T13:45:36.538Z,160
2017-08-01T13:46:38.069Z,175
2017-08-01T13:47:39.504Z,180
2017-08-01T13:48:41.052Z,160
2017-08-01T13:49:42.571Z,125
2017-08-01T13:50:44.085Z,110
2017-08-01T13:51:45.618Z,100
2017-08-01T13:52:47.053Z,95
2017-08-01T13:53:48.579Z,95
2017-08-01T13:54:50.017Z,100
2017-08-01T13:55:51.519Z,105
2017-08-01T13:56:53.046Z,115
2017-08-01T13:57:54.564Z,125
2017-08-01T13:58:56.081Z,125
2017-08-01T13:59:57.709Z,130
2017-08-01T14:00:59.236Z,140
2017-08-01T14:02:00.752Z,145
2017-08-01T14:03:02.265Z,150
2017-08-01T14:04:03.772Z,155
2017-08-01T14:05:05.288Z,160
2017-08-01T14:06:06.814Z,160
2017-08-01T14:07:08.447Z,155
2017-08-01T14:08:09.983Z,160
2017-08-01T14:09:11.489Z,155
2017-08-01T14:10:12.921Z,155
2017-08-01T14:11:14.445Z,150
2017-08-01T14:12:15.899Z,145
2017-08-01T14:13:17.413Z,140
2017-08-01T14:14:18.930Z,140
2017-08-01T14:15:20.375Z,145
2017-08-01T14:16:21.893Z,145
2017-08-01T14:17:23.405Z,155
2017-08-01T14:18:24.913Z,165
2017-08-01T14:19:26.437Z,170
2017-08-01T14:20:27.972Z,170
2017-08-01T14:21:29.564Z,165
2017-08-01T14:22:31.019Z,155
2017-08-01T14:23:32.578Z,150
2017-08-01T14:24:34.130Z,145
2017-08-01T14:25:35.558Z,145
2017-08-01T14:26:37.024Z,140
2017-08-01T14:27:38.710Z,135
2017-08-01T14:28:40.234Z,105
2017-08-01T14:29:41.749Z,80
2017-08-01T14:30:43.260Z,85